createdAt,value
2023-05-09T00:00:37.475Z,2.44
2023-05-09T00:03:14.416Z,2.40
2023-05-09T00:05:42.454Z,2.35
2023-05-09T00:08:10.088Z,2.30
2023-05-09T00:10:37.671Z,2.26
2023-05-09T00:13:06.232Z,2.22
2023-05-09T00:15:34.198Z,2.24
2023-05-09T00:18:01.941Z,2.25
2023-05-09T00:20:29.612Z,2.25
2023-05-09T00:22:57.255Z,2.22
2023-05-09T00:25:25.278Z,2.19
2023-05-09T00:27:52.880Z,2.13
2023-05-09T00:30:20.476Z,2.07
2023-05-09T00:32:48.193Z,2.03
2023-05-09T00:35:16.434Z,1.98
2023-05-09T00:37:44.277Z,1.95
2023-05-09T00:40:12.447Z,1.90
2023-05-09T00:42:40.115Z,1.85
2023-05-09T00:45:08.793Z,1.79
2023-05-09T00:47:36.482Z,1.71
2023-05-09T00:50:05.261Z,1.65
2023-05-09T00:52:33.409Z,1.62
2023-05-09T00:55:01.026Z,1.63
2023-05-09T00:57:28.680Z,1.66
2023-05-09T00:59:56.242Z,1.67
2023-05-09T01:02:24.175Z,1.67
2023-05-09T01:04:52.052Z,1.64
2023-05-09T01:07:39.458Z,1.62
2023-05-09T01:10:16.321Z,1.56
2023-05-09T01:12:52.584Z,1.53
2023-05-09T01:15:26.811Z,1.48
2023-05-09T01:17:58.871Z,1.44
2023-05-09T01:20:30.563Z,1.39
2023-05-09T01:23:30.573Z,1.33
2023-05-09T01:26:10.214Z,1.27
2023-05-09T01:28:56.960Z,1.24
2023-05-09T01:31:24.817Z,1.25
2023-05-09T01:33:54.899Z,1.27
2023-05-09T01:36:22.536Z,1.28
2023-05-09T01:38:50.513Z,1.26
2023-05-09T01:41:18.156Z,1.25
2023-05-09T01:43:46.285Z,1.23
2023-05-09T01:46:14.329Z,1.21
2023-05-09T01:48:42.316Z,1.17
2023-05-09T01:51:10.081Z,1.13
2023-05-09T01:53:37.678Z,1.08
2023-05-09T01:56:05.696Z,1.04
2023-05-09T01:58:33.784Z,1.01
2023-05-09T02:01:01.462Z,0.99
2023-05-09T02:03:30.054Z,0.99
2023-05-09T02:05:57.667Z,1.02
2023-05-09T02:08:25.353Z,1.09
2023-05-09T02:10:53.254Z,1.15
2023-05-09T02:13:21.088Z,1.18
2023-05-09T02:15:48.835Z,1.20
2023-05-09T02:18:17.378Z,1.21
2023-05-09T02:20:45.012Z,1.21
2023-05-09T02:23:12.775Z,1.19
2023-05-09T02:25:40.728Z,1.15
2023-05-09T02:28:09.176Z,1.11
2023-05-09T02:30:43.324Z,1.05
2023-05-09T02:33:12.749Z,0.99
2023-05-09T02:35:42.433Z,0.94
2023-05-09T02:38:10.132Z,0.89
2023-05-09T02:40:37.730Z,0.88
2023-05-09T02:43:05.500Z,0.90
2023-05-09T02:45:33.142Z,0.91
2023-05-09T02:48:00.956Z,0.91
2023-05-09T02:50:28.721Z,0.90
2023-05-09T02:52:56.339Z,0.89
2023-05-09T02:55:24.084Z,0.88
2023-05-09T02:57:58.976Z,0.86
2023-05-09T03:00:33.258Z,0.83
2023-05-09T03:03:00.925Z,0.78
2023-05-09T03:05:28.735Z,0.75
2023-05-09T03:07:56.370Z,0.72
2023-05-09T03:10:24.045Z,0.71
2023-05-09T03:12:51.766Z,0.72
2023-05-09T03:15:20.471Z,0.76
2023-05-09T03:17:48.256Z,0.80
2023-05-09T03:20:16.091Z,0.83
2023-05-09T03:22:43.788Z,0.84
2023-05-09T03:25:11.420Z,0.86
2023-05-09T03:27:39.040Z,0.86
2023-05-09T03:30:07.751Z,0.88
2023-05-09T03:32:35.424Z,0.89
2023-05-09T03:35:03.409Z,0.89
2023-05-09T03:37:31.179Z,0.91
2023-05-09T03:39:58.780Z,0.95
2023-05-09T03:42:26.406Z,1.04
2023-05-09T03:44:55.067Z,1.16
2023-05-09T03:47:22.683Z,1.26
2023-05-09T03:49:50.746Z,1.37
2023-05-09T03:52:18.415Z,1.45
2023-05-09T03:54:46.159Z,1.52
2023-05-09T03:57:13.799Z,1.56
2023-05-09T03:59:41.495Z,1.60
2023-05-09T04:02:09.164Z,1.63
2023-05-09T04:04:36.941Z,1.65
2023-05-09T04:07:04.528Z,1.70
2023-05-09T04:09:32.211Z,1.79
2023-05-09T04:11:59.856Z,1.90
2023-05-09T04:14:27.451Z,2.01
2023-05-09T04:16:55.090Z,2.11
2023-05-09T04:19:22.991Z,2.21
2023-05-09T04:21:50.825Z,2.27
2023-05-09T04:24:18.473Z,2.33
2023-05-09T04:26:46.277Z,2.40
2023-05-09T04:29:13.943Z,2.46
2023-05-09T04:31:41.664Z,2.54
2023-05-09T04:34:09.478Z,2.67
2023-05-09T04:36:37.072Z,2.81
2023-05-09T04:39:05.400Z,2.96
2023-05-09T04:41:33.035Z,3.08
2023-05-09T04:44:00.922Z,3.20
2023-05-09T04:46:28.629Z,3.30
2023-05-09T04:48:56.355Z,3.40
2023-05-09T04:51:24.138Z,3.51
2023-05-09T04:53:52.292Z,3.65
2023-05-09T04:56:19.972Z,3.81
2023-05-09T04:58:47.652Z,3.96
2023-05-09T05:01:16.811Z,4.08
2023-05-09T05:03:45.996Z,4.19
2023-05-09T05:06:13.699Z,4.27
2023-05-09T05:08:41.329Z,4.36
2023-05-09T05:11:08.952Z,4.44
2023-05-09T05:13:36.596Z,4.55
2023-05-09T05:16:04.807Z,4.68
2023-05-09T05:18:32.628Z,4.81
2023-05-09T05:21:00.261Z,4.93
2023-05-09T05:23:27.879Z,5.04
2023-05-09T05:25:55.591Z,5.13
2023-05-09T05:28:23.682Z,5.23
2023-05-09T05:30:51.342Z,5.35
2023-05-09T05:33:19.006Z,5.48
2023-05-09T05:35:46.706Z,5.61
2023-05-09T05:38:14.303Z,5.72
2023-05-09T05:40:41.998Z,5.83
2023-05-09T05:43:09.647Z,5.92
2023-05-09T05:45:37.835Z,6.00
2023-05-09T05:48:05.760Z,6.12
2023-05-09T05:50:33.554Z,6.25
2023-05-09T05:53:01.225Z,6.40
2023-05-09T05:55:28.979Z,6.51
2023-05-09T05:57:56.756Z,6.62
2023-05-09T06:00:24.529Z,6.72
2023-05-09T06:02:52.386Z,6.81
2023-05-09T06:05:20.445Z,6.93
2023-05-09T06:07:48.316Z,7.06
2023-05-09T06:10:17.132Z,7.18
2023-05-09T06:12:44.826Z,7.29
2023-05-09T06:15:12.766Z,7.39
2023-05-09T06:17:40.920Z,7.51
2023-05-09T06:20:08.775Z,7.61
2023-05-09T06:22:36.362Z,7.73
2023-05-09T06:25:04.388Z,7.84
2023-05-09T06:27:31.981Z,7.95
2023-05-09T06:30:00.270Z,8.03
2023-05-09T06:32:28.127Z,8.11
2023-05-09T06:34:56.059Z,8.19
2023-05-09T06:37:23.635Z,8.25
2023-05-09T06:39:51.393Z,8.32
2023-05-09T06:42:19.120Z,8.41
2023-05-09T06:44:46.851Z,8.50
2023-05-09T06:47:14.562Z,8.61
2023-05-09T06:49:42.879Z,8.70
2023-05-09T06:52:10.477Z,8.77
2023-05-09T06:54:39.120Z,8.84
2023-05-09T06:57:06.703Z,8.92
2023-05-09T06:59:34.356Z,9.01
2023-05-09T07:02:02.140Z,9.10
2023-05-09T07:04:29.938Z,9.18
2023-05-09T07:06:59.269Z,9.27
2023-05-09T07:09:28.824Z,9.35
2023-05-09T07:11:56.570Z,9.42
2023-05-09T07:14:24.180Z,9.49
2023-05-09T07:16:51.896Z,9.57
2023-05-09T07:19:19.651Z,9.67
2023-05-09T07:21:47.254Z,9.77
2023-05-09T07:24:14.913Z,9.88
2023-05-09T07:26:42.533Z,9.98
2023-05-09T07:29:10.166Z,10.09
2023-05-09T07:31:37.864Z,10.18
2023-05-09T07:34:05.506Z,10.28
2023-05-09T07:36:35.340Z,10.37
2023-05-09T07:39:04.886Z,10.45
2023-05-09T07:41:32.524Z,10.52
2023-05-09T07:44:00.143Z,10.59
2023-05-09T07:46:27.847Z,10.66
2023-05-09T07:48:55.767Z,10.73
2023-05-09T07:51:24.043Z,10.80
2023-05-09T07:53:51.657Z,10.88
2023-05-09T07:56:19.292Z,10.96
2023-05-09T07:58:46.943Z,11.02
2023-05-09T08:01:14.791Z,11.09
2023-05-09T08:03:42.536Z,11.15
2023-05-09T08:06:10.220Z,11.21
2023-05-09T08:08:38.967Z,11.30
2023-05-09T08:11:06.913Z,11.41
2023-05-09T08:13:34.519Z,11.49
2023-05-09T08:16:02.764Z,11.55
2023-05-09T08:18:30.466Z,11.66
2023-05-09T08:20:59.747Z,11.76
2023-05-09T08:23:28.169Z,11.86
2023-05-09T08:25:56.345Z,11.96
2023-05-09T08:28:24.432Z,12.03
2023-05-09T08:30:52.403Z,12.11
2023-05-09T08:33:20.182Z,12.19
2023-05-09T08:35:54.016Z,12.27
2023-05-09T08:38:21.691Z,12.33
2023-05-09T08:40:49.387Z,12.39
2023-05-09T08:43:19.837Z,12.43
2023-05-09T08:45:58.639Z,12.47
2023-05-09T08:48:27.951Z,12.54
2023-05-09T08:50:56.201Z,12.60
2023-05-09T08:53:23.924Z,12.66
2023-05-09T08:55:52.278Z,12.73
2023-05-09T08:58:22.772Z,12.82
2023-05-09T09:00:50.847Z,12.93
2023-05-09T09:03:19.368Z,13.04
2023-05-09T09:05:47.585Z,13.13
2023-05-09T09:08:15.448Z,13.23
2023-05-09T09:10:47.171Z,13.31
2023-05-09T09:13:15.452Z,13.39
2023-05-09T09:15:44.155Z,13.48
2023-05-09T09:18:13.005Z,13.51
2023-05-09T09:20:43.708Z,13.55
2023-05-09T09:23:11.453Z,13.59
2023-05-09T09:25:39.305Z,13.63
2023-05-09T09:28:07.113Z,13.70
2023-05-09T09:30:34.884Z,13.75
2023-05-09T09:33:02.552Z,13.81
2023-05-09T09:35:30.347Z,13.90
2023-05-09T09:38:00.139Z,14.01
2023-05-09T09:40:28.100Z,14.09
2023-05-09T09:42:56.038Z,14.17
2023-05-09T09:45:23.770Z,14.24
2023-05-09T09:47:51.408Z,14.31
2023-05-09T09:50:20.227Z,14.38
2023-05-09T09:52:57.838Z,14.46
2023-05-09T09:55:25.475Z,14.56
2023-05-09T09:57:53.183Z,14.74
2023-05-09T10:00:27.832Z,15.13
2023-05-09T10:02:59.197Z,15.57
2023-05-09T10:05:29.131Z,15.97
2023-05-09T10:08:01.564Z,16.33
2023-05-09T10:10:33.849Z,16.67
2023-05-09T10:13:07.474Z,16.95
2023-05-09T10:15:49.462Z,17.17
2023-05-09T10:18:23.128Z,17.31
2023-05-09T10:20:50.907Z,17.48
2023-05-09T10:23:18.672Z,17.66
2023-05-09T10:25:55.542Z,17.78
2023-05-09T10:28:25.294Z,17.94
2023-05-09T10:31:22.136Z,18.02
2023-05-09T10:33:50.377Z,18.15
2023-05-09T10:36:20.713Z,18.23
2023-05-09T10:38:49.188Z,18.25
2023-05-09T10:41:17.270Z,18.25
2023-05-09T10:43:45.864Z,18.24
2023-05-09T10:46:13.652Z,18.31
2023-05-09T10:48:42.195Z,18.43
2023-05-09T10:51:10.328Z,18.46
2023-05-09T10:53:50.905Z,18.48
2023-05-09T10:56:32.720Z,18.45
2023-05-09T10:59:00.477Z,18.53
2023-05-09T11:01:34.827Z,18.64
2023-05-09T11:04:08.916Z,18.77
2023-05-09T11:06:51.366Z,18.91
2023-05-09T11:09:29.439Z,19.04
2023-05-09T11:11:59.437Z,19.19
2023-05-09T11:14:40.808Z,19.22
2023-05-09T11:17:12.937Z,19.08
2023-05-09T11:19:46.513Z,19.07
2023-05-09T11:22:15.362Z,19.11
2023-05-09T11:24:50.196Z,19.04
2023-05-09T11:27:21.973Z,18.82
2023-05-09T11:29:59.843Z,18.75
2023-05-09T11:32:28.846Z,18.83
2023-05-09T11:35:17.855Z,19.01
2023-05-09T11:38:02.288Z,19.18
2023-05-09T11:40:30.229Z,19.26
2023-05-09T11:42:58.948Z,19.32
2023-05-09T11:45:30.885Z,19.41
2023-05-09T11:47:58.709Z,19.40
2023-05-09T11:50:26.543Z,19.41
2023-05-09T11:52:54.234Z,19.47
2023-05-09T11:55:22.945Z,19.46
2023-05-09T11:57:52.542Z,19.58
2023-05-09T12:00:24.429Z,19.75
2023-05-09T12:02:52.808Z,19.90
2023-05-09T12:05:21.506Z,19.99
2023-05-09T12:07:49.253Z,20.15
2023-05-09T12:10:19.914Z,20.42
2023-05-09T12:12:49.166Z,20.74
2023-05-09T12:15:17.678Z,20.97
2023-05-09T12:17:47.297Z,21.13
2023-05-09T12:20:15.958Z,21.35
2023-05-09T12:22:43.913Z,21.51
2023-05-09T12:25:12.085Z,21.57
2023-05-09T12:27:41.074Z,21.49
2023-05-09T12:30:10.597Z,21.41
2023-05-09T12:32:40.460Z,21.32
2023-05-09T12:35:09.639Z,21.39
2023-05-09T12:37:37.837Z,21.54
2023-05-09T12:40:12.612Z,21.68
2023-05-09T12:42:43.128Z,21.86
2023-05-09T12:45:11.707Z,21.96
2023-05-09T12:47:39.672Z,22.06
2023-05-09T12:50:08.268Z,22.18
2023-05-09T12:52:50.721Z,22.29
2023-05-09T12:55:26.501Z,22.42
2023-05-09T12:58:03.861Z,22.28
2023-05-09T13:00:47.031Z,22.13
2023-05-09T13:03:26.081Z,22.20
2023-05-09T13:05:57.516Z,22.36
2023-05-09T13:08:25.656Z,22.55
2023-05-09T13:11:00.734Z,22.78
2023-05-09T13:13:32.052Z,22.83
2023-05-09T13:15:59.794Z,22.78
2023-05-09T13:18:27.456Z,22.73
2023-05-09T13:20:55.124Z,22.81
2023-05-09T13:23:22.963Z,22.76
2023-05-09T13:25:51.721Z,22.58
2023-05-09T13:28:19.323Z,22.52
2023-05-09T13:30:47.166Z,22.58
2023-05-09T13:33:25.374Z,22.54
2023-05-09T13:35:54.304Z,22.54
2023-05-09T13:38:21.982Z,22.65
2023-05-09T13:40:49.759Z,22.75
2023-05-09T13:43:17.360Z,22.70
2023-05-09T13:45:45.056Z,22.73
2023-05-09T13:48:12.882Z,22.93
2023-05-09T13:50:40.685Z,23.06
2023-05-09T13:53:08.451Z,22.88
2023-05-09T13:55:36.066Z,22.54
2023-05-09T13:58:03.669Z,22.33
2023-05-09T14:00:31.393Z,22.31
2023-05-09T14:02:59.094Z,22.46
2023-05-09T14:05:26.919Z,22.57
2023-05-09T14:07:55.044Z,22.77
2023-05-09T14:10:24.166Z,23.01
2023-05-09T14:12:53.546Z,23.07
2023-05-09T14:15:21.303Z,22.88
2023-05-09T14:17:49.095Z,22.85
2023-05-09T14:20:16.969Z,22.92
2023-05-09T14:22:45.003Z,22.88
2023-05-09T14:25:12.741Z,22.68
2023-05-09T14:27:40.641Z,22.75
2023-05-09T14:30:09.254Z,22.78
2023-05-09T14:32:37.251Z,22.91
2023-05-09T14:35:05.466Z,23.13
2023-05-09T14:37:33.962Z,23.36
2023-05-09T14:40:05.545Z,23.51
2023-05-09T14:42:33.327Z,23.53
2023-05-09T14:45:00.996Z,23.62
2023-05-09T14:47:28.761Z,23.78
2023-05-09T14:49:56.768Z,23.70
2023-05-09T14:52:24.407Z,23.52
2023-05-09T14:54:52.038Z,23.49
2023-05-09T14:57:19.898Z,23.48
2023-05-09T14:59:47.491Z,23.59
2023-05-09T15:02:15.090Z,23.71
2023-05-09T15:04:43.868Z,23.79
2023-05-09T15:07:11.963Z,23.84
2023-05-09T15:09:39.617Z,23.82
2023-05-09T15:12:07.393Z,23.76
2023-05-09T15:14:35.120Z,23.69
2023-05-09T15:17:04.364Z,23.68
2023-05-09T15:19:33.948Z,23.76
2023-05-09T15:22:02.620Z,23.87
2023-05-09T15:24:30.796Z,23.97
2023-05-09T15:26:58.633Z,24.05
2023-05-09T15:29:26.793Z,24.11
2023-05-09T15:31:54.615Z,24.08
2023-05-09T15:34:22.978Z,24.19
2023-05-09T15:36:50.826Z,24.21
2023-05-09T15:39:18.464Z,24.18
2023-05-09T15:41:46.087Z,24.10
2023-05-09T15:44:14.751Z,24.00
2023-05-09T15:46:42.492Z,23.89
2023-05-09T15:49:10.197Z,23.81
2023-05-09T15:51:38.054Z,23.62
2023-05-09T15:54:05.644Z,23.51
2023-05-09T15:56:33.226Z,23.43
2023-05-09T15:59:01.180Z,23.44
2023-05-09T16:01:28.812Z,23.49
2023-05-09T16:03:56.851Z,23.35
2023-05-09T16:06:24.642Z,23.24
2023-05-09T16:08:52.479Z,23.11
2023-05-09T16:11:20.206Z,23.06
2023-05-09T16:13:47.923Z,23.06
2023-05-09T16:16:15.724Z,22.99
2023-05-09T16:18:43.569Z,22.92
2023-05-09T16:21:11.783Z,22.87
2023-05-09T16:23:39.602Z,22.81
2023-05-09T16:26:07.339Z,22.70
2023-05-09T16:28:35.033Z,22.62
2023-05-09T16:31:05.045Z,22.55
2023-05-09T16:33:32.829Z,22.45
2023-05-09T16:36:00.785Z,22.34
2023-05-09T16:38:28.420Z,22.26
2023-05-09T16:40:56.392Z,22.10
2023-05-09T16:43:24.262Z,21.96
2023-05-09T16:45:52.898Z,21.83
2023-05-09T16:48:20.654Z,21.68
2023-05-09T16:50:48.409Z,21.59
2023-05-09T16:53:17.590Z,21.54
2023-05-09T16:55:45.995Z,21.42
2023-05-09T16:58:13.754Z,21.34
2023-05-09T17:00:41.338Z,21.28
2023-05-09T17:03:09.108Z,21.18
2023-05-09T17:05:36.933Z,21.06
2023-05-09T17:08:05.273Z,20.94
2023-05-09T17:10:34.177Z,20.84
2023-05-09T17:13:07.689Z,20.66
2023-05-09T17:15:35.666Z,20.48
2023-05-09T17:18:03.704Z,20.34
2023-05-09T17:20:31.824Z,20.24
2023-05-09T17:22:59.472Z,20.12
2023-05-09T17:25:27.528Z,19.96
2023-05-09T17:27:55.142Z,19.80
2023-05-09T17:30:23.390Z,19.61
2023-05-09T17:32:51.410Z,19.38
2023-05-09T17:35:20.802Z,19.16
2023-05-09T17:37:48.716Z,18.88
2023-05-09T17:40:16.660Z,18.57
2023-05-09T17:42:44.442Z,18.20
2023-05-09T17:45:14.923Z,17.85
2023-05-09T17:47:42.558Z,17.54
2023-05-09T17:50:14.542Z,17.25
2023-05-09T17:52:44.025Z,16.97
2023-05-09T17:55:12.189Z,16.70
2023-05-09T17:57:40.786Z,16.44
2023-05-09T18:00:09.349Z,16.23
2023-05-09T18:02:37.178Z,16.04
2023-05-09T18:05:05.817Z,15.89
2023-05-09T18:07:33.903Z,15.70
2023-05-09T18:10:01.650Z,15.53
2023-05-09T18:12:31.148Z,15.36
2023-05-09T18:14:58.869Z,15.20
2023-05-09T18:17:26.473Z,15.07
2023-05-09T18:19:54.056Z,14.94
2023-05-09T18:22:22.313Z,14.81
2023-05-09T18:24:49.993Z,14.68
2023-05-09T18:27:17.624Z,14.52
2023-05-09T18:29:47.505Z,14.37
2023-05-09T18:32:15.481Z,14.24
2023-05-09T18:34:43.437Z,14.10
2023-05-09T18:37:11.104Z,13.98
2023-05-09T18:39:38.711Z,13.85
2023-05-09T18:42:06.579Z,13.74
2023-05-09T18:44:35.198Z,13.64
2023-05-09T18:47:02.897Z,13.54
2023-05-09T18:49:30.542Z,13.42
2023-05-09T18:52:00.199Z,13.31
2023-05-09T18:54:27.863Z,13.21
2023-05-09T18:56:55.441Z,13.12
2023-05-09T18:59:23.584Z,13.03
2023-05-09T19:01:51.214Z,12.95
2023-05-09T19:04:19.601Z,12.87
2023-05-09T19:06:47.604Z,12.78
2023-05-09T19:09:15.478Z,12.70
2023-05-09T19:11:43.409Z,12.61
2023-05-09T19:14:11.037Z,12.54
2023-05-09T19:16:38.679Z,12.46
2023-05-09T19:19:06.324Z,12.39
2023-05-09T19:21:35.724Z,12.32
2023-05-09T19:24:04.799Z,12.25
2023-05-09T19:26:32.515Z,12.18
2023-05-09T19:29:01.332Z,12.10
2023-05-09T19:31:31.382Z,12.02
2023-05-09T19:33:59.857Z,11.97
2023-05-09T19:36:27.527Z,11.91
2023-05-09T19:38:55.178Z,11.85
2023-05-09T19:41:22.798Z,11.79
2023-05-09T19:43:51.457Z,11.72
2023-05-09T19:46:19.426Z,11.65
2023-05-09T19:48:47.134Z,11.60
2023-05-09T19:51:15.527Z,11.52
2023-05-09T19:53:43.156Z,11.47
2023-05-09T19:56:11.673Z,11.40
2023-05-09T19:58:39.271Z,11.33
2023-05-09T20:01:07.361Z,11.27
2023-05-09T20:03:37.021Z,11.20
2023-05-09T20:06:05.036Z,11.14
2023-05-09T20:08:32.778Z,11.09
2023-05-09T20:11:00.400Z,11.04
2023-05-09T20:13:28.146Z,10.98
2023-05-09T20:15:57.134Z,10.93
2023-05-09T20:18:24.851Z,10.88
2023-05-09T20:20:53.952Z,10.82
2023-05-09T20:23:21.567Z,10.76
2023-05-09T20:25:49.273Z,10.70
2023-05-09T20:28:20.323Z,10.65
2023-05-09T20:30:48.680Z,10.60
2023-05-09T20:33:16.330Z,10.54
2023-05-09T20:35:43.995Z,10.48
2023-05-09T20:38:11.692Z,10.44
2023-05-09T20:40:40.349Z,10.39
2023-05-09T20:43:08.134Z,10.34
2023-05-09T20:45:37.497Z,10.30
2023-05-09T20:48:06.655Z,10.25
2023-05-09T20:50:34.400Z,10.20
2023-05-09T20:53:02.063Z,10.16
2023-05-09T20:55:29.726Z,10.11
2023-05-09T20:57:57.987Z,10.07
2023-05-09T21:00:25.659Z,10.04
2023-05-09T21:02:56.910Z,9.99
2023-05-09T21:05:26.179Z,9.94
2023-05-09T21:07:53.881Z,9.90
2023-05-09T21:10:21.492Z,9.88
2023-05-09T21:12:49.148Z,9.86
2023-05-09T21:15:16.923Z,9.85
2023-05-09T21:17:44.739Z,9.85
2023-05-09T21:20:12.812Z,9.85
2023-05-09T21:22:40.665Z,9.84
2023-05-09T21:25:09.015Z,9.84
2023-05-09T21:27:36.621Z,9.82
2023-05-09T21:30:04.982Z,9.83
2023-05-09T21:32:32.589Z,9.82
2023-05-09T21:35:01.432Z,9.80
2023-05-09T21:37:29.201Z,9.78
2023-05-09T21:39:57.216Z,9.77
2023-05-09T21:42:24.953Z,9.75
2023-05-09T21:44:52.614Z,9.72
2023-05-09T21:47:20.600Z,9.70
2023-05-09T21:49:48.352Z,9.68
2023-05-09T21:52:16.496Z,9.66
2023-05-09T21:54:44.304Z,9.63
2023-05-09T21:57:11.899Z,9.61
2023-05-09T21:59:39.508Z,9.59
2023-05-09T22:02:07.186Z,9.57
2023-05-09T22:04:34.889Z,9.54
2023-05-09T22:07:02.542Z,9.50
2023-05-09T22:09:30.450Z,9.47
2023-05-09T22:11:58.103Z,9.44
2023-05-09T22:14:25.806Z,9.41
2023-05-09T22:16:53.530Z,9.38
2023-05-09T22:19:21.301Z,9.36
2023-05-09T22:21:49.079Z,9.32
2023-05-09T22:24:16.723Z,9.30
2023-05-09T22:26:44.321Z,9.26
2023-05-09T22:29:12.034Z,9.24
2023-05-09T22:31:39.673Z,9.20
2023-05-09T22:34:07.359Z,9.16
2023-05-09T22:36:35.049Z,9.13
2023-05-09T22:39:03.206Z,9.10
2023-05-09T22:41:30.786Z,9.08
2023-05-09T22:43:58.413Z,9.05
2023-05-09T22:46:26.109Z,9.02
2023-05-09T22:48:53.714Z,8.98
2023-05-09T22:51:21.420Z,8.93
2023-05-09T22:53:49.025Z,8.89
2023-05-09T22:56:16.740Z,8.86
2023-05-09T22:58:44.374Z,8.83
2023-05-09T23:01:11.999Z,8.80
2023-05-09T23:03:39.671Z,8.78
2023-05-09T23:06:07.514Z,8.76
2023-05-09T23:08:35.263Z,8.72
2023-05-09T23:11:02.930Z,8.69
2023-05-09T23:13:30.661Z,8.67
2023-05-09T23:15:58.354Z,8.64
2023-05-09T23:18:28.041Z,8.60
2023-05-09T23:20:55.671Z,8.58
2023-05-09T23:23:23.618Z,8.56
2023-05-09T23:25:51.204Z,8.54
2023-05-09T23:28:20.431Z,8.52
2023-05-09T23:30:48.060Z,8.51
2023-05-09T23:33:16.265Z,8.48
2023-05-09T23:35:43.875Z,8.46
2023-05-09T23:38:11.624Z,8.42
2023-05-09T23:40:39.793Z,8.39
2023-05-09T23:43:07.420Z,8.35
2023-05-09T23:45:35.104Z,8.33
2023-05-09T23:48:02.926Z,8.29
2023-05-09T23:50:30.629Z,8.25
2023-05-09T23:52:58.256Z,8.22
2023-05-09T23:55:25.854Z,8.20
2023-05-09T23:57:53.451Z,8.17
